Time;durP1;ratioP1;P1;durP2;ratioP2;P2;SDS_P1;SDS_P2;PMS_P1;PMS_P2;Temp;Humidity;BMP_temperature;BMP_pressure;BME280_temperature;BME280_humidity;BME280_pressure;Samples;Min_cycle;Max_cycle;Signal;HPM_P1;HPM_P2
2023/05/06 00:02:03;;;;;;;;;;;;;;;18.98;67.64;101085.91;7395591;19;1886;-48
2023/05/06 00:04:32;;;;;;;;;;;;;;;19.10;67.40;101079.56;7396389;19;1496;-49
2023/05/06 00:07:00;;;;;;;;;;;;;;;19.03;67.45;101067.63;7396880;19;1298;-51
2023/05/06 00:09:28;;;;;;;;;;;;;;;19.05;67.40;101077.22;7392376;19;1927;-49
2023/05/06 00:11:57;;;;;;;;;;;;;;;19.05;67.49;101071.88;7395184;19;1603;-49
2023/05/06 00:14:27;;;;;;;;;;;;;;;19.05;67.09;101069.19;7395510;19;1543;-48
2023/05/06 00:16:56;;;;;;;;;;;;;;;19.03;67.66;101067.63;7397183;19;1183;-48
2023/05/06 00:19:24;;;;;;;;;;;;;;;19.07;67.42;101080.63;7396623;19;1102;-49
2023/05/06 00:21:52;;;;;;;;;;;;;;;19.09;67.14;101067.13;7396091;19;1865;-49
2023/05/06 00:24:21;;;;;;;;;;;;;;;19.03;67.02;101057.75;7396316;19;1562;-49
2023/05/06 00:26:49;;;;;;;;;;;;;;;19.13;67.00;101071.22;7396921;19;1382;-49
2023/05/06 00:29:17;;;;;;;;;;;;;;;19.04;67.12;101055.94;7395809;19;1705;-49
2023/05/06 00:31:48;;;;;;;;;;;;;;;19.05;67.44;101077.22;7395814;19;1733;-49
2023/05/06 00:34:19;;;;;;;;;;;;;;;19.06;67.08;101078.94;7393488;19;1382;-49
2023/05/06 00:36:47;;;;;;;;;;;;;;;19.11;67.01;101059.78;7402235;19;1001;-49
2023/05/06 00:39:16;;;;;;;;;;;;;;;19.16;67.19;101064.75;7404844;19;1021;-49
2023/05/06 00:41:44;;;;;;;;;;;;;;;19.09;67.06;101067.13;7402607;19;1947;-48
2023/05/06 00:44:13;;;;;;;;;;;;;;;19.07;67.15;101069.91;7400300;19;1819;-49
2023/05/06 00:46:41;;;;;;;;;;;;;;;19.04;67.01;101059.47;7402221;19;1404;-48
2023/05/06 00:49:13;;;;;;;;;;;;;;;19.00;67.37;101049.97;7402131;19;1486;-50
2023/05/06 00:51:41;;;;;;;;;;;;;;;19.04;67.16;101043.38;7401770;19;1555;-50
2023/05/06 00:54:10;;;;;;;;;;;;;;;19.02;67.14;101048.03;7402024;19;1555;-48
2023/05/06 00:56:38;;;;;;;;;;;;;;;19.06;67.29;101064.72;7400569;19;1548;-49
2023/05/06 00:59:06;;;;;;;;;;;;;;;19.03;67.39;101057.75;7402006;19;1418;-49
2023/05/06 01:01:36;;;;;;;;;;;;;;;18.98;67.37;101032.31;7401617;19;1385;-49
2023/05/06 01:04:06;;;;;;;;;;;;;;;18.97;67.37;101049.38;7397694;19;1849;-49
2023/05/06 01:06:43;;;;;;;;;;;;;;;18.97;67.37;101052.91;7404441;19;1006;-48
2023/05/06 01:09:16;;;;;;;;;;;;;;;18.94;67.72;101047.81;7399901;19;1869;-49
2023/05/06 01:11:47;;;;;;;;;;;;;;;18.94;67.53;101042.47;7402748;19;1243;-49
2023/05/06 01:14:20;;;;;;;;;;;;;;;18.99;67.38;101037.56;7402905;19;1401;-49
2023/05/06 01:16:51;;;;;;;;;;;;;;;19.00;67.41;101052.66;7403591;19;1170;-49
2023/05/06 01:19:30;;;;;;;;;;;;;;;18.93;67.32;101046.09;7403136;19;1860;-49
2023/05/06 01:22:02;;;;;;;;;;;;;;;18.98;67.15;101041.22;7402461;19;1821;-49
2023/05/06 01:24:42;;;;;;;;;;;;;;;18.99;67.57;101044.75;7402397;19;1959;-49
2023/05/06 01:27:10;;;;;;;;;;;;;;;18.99;67.57;101050.94;7401300;19;1821;-49
2023/05/06 01:29:40;;;;;;;;;;;;;;;18.97;67.45;101052.06;7399223;19;1876;-49
2023/05/06 01:32:13;;;;;;;;;;;;;;;19.03;66.96;101027.44;7402026;19;1804;-49
2023/05/06 01:34:45;;;;;;;;;;;;;;;19.04;67.01;101034.50;7402916;19;1797;-49
2023/05/06 01:37:18;;;;;;;;;;;;;;;19.00;67.17;101035.72;7401712;19;1619;-49
2023/05/06 01:39:49;;;;;;;;;;;;;;;18.94;67.10;101037.09;7402664;19;1281;-49
2023/05/06 01:42:18;;;;;;;;;;;;;;;18.97;67.07;101039.50;7401644;19;1968;-49
2023/05/06 01:44:47;;;;;;;;;;;;;;;18.83;67.94;101035.31;7401071;19;1908;-50
2023/05/06 01:47:15;;;;;;;;;;;;;;;19.32;67.00;101035.69;7397627;19;1187;-51
2023/05/06 01:49:43;;;;;;;;;;;;;;;20.09;64.93;101038.91;7400467;19;1195;-50
2023/05/06 01:52:12;;;;;;;;;;;;;;;20.37;64.16;101031.91;7401785;19;1243;-51
2023/05/06 01:54:40;;;;;;;;;;;;;;;20.41;64.22;101031.53;7401664;19;1939;-48
2023/05/06 01:57:11;;;;;;;;;;;;;;;20.45;64.15;101035.63;7401236;19;1441;-49
2023/05/06 01:59:39;;;;;;;;;;;;;;;20.51;64.17;101031.53;7400632;19;1868;-48
2023/05/06 02:02:08;;;;;;;;;;;;;;;20.49;64.16;101014.69;7401184;19;1751;-49
2023/05/06 02:04:36;;;;;;;;;;;;;;;20.56;64.00;101026.59;7398813;19;1863;-48
2023/05/06 02:07:05;;;;;;;;;;;;;;;20.56;64.05;101025.75;7401242;19;1098;-48
2023/05/06 02:09:33;;;;;;;;;;;;;;;20.54;64.37;101025.03;7398631;19;1809;-50
2023/05/06 02:12:01;;;;;;;;;;;;;;;20.55;64.18;101035.66;7400420;19;1837;-50
2023/05/06 02:14:32;;;;;;;;;;;;;;;20.71;63.58;101029.75;7400359;19;1373;-49
2023/05/06 02:17:04;;;;;;;;;;;;;;;20.51;63.77;100988.53;7400321;19;1528;-49
2023/05/06 02:19:32;;;;;;;;;;;;;;;20.53;64.18;101016.13;7401641;19;1019;-49
2023/05/06 02:22:00;;;;;;;;;;;;;;;20.58;64.40;101043.41;7400066;19;1869;-48
2023/05/06 02:24:29;;;;;;;;;;;;;;;20.59;64.39;101037.09;7397054;19;1861;-48
2023/05/06 02:26:57;;;;;;;;;;;;;;;20.68;63.68;101019.28;7399597;19;1250;-48
2023/05/06 02:29:25;;;;;;;;;;;;;;;20.84;63.68;101018.72;7399511;19;1634;-48
2023/05/06 02:31:56;;;;;;;;;;;;;;;20.84;63.77;101024.09;7398558;19;1172;-48
2023/05/06 02:34:24;;;;;;;;;;;;;;;20.84;63.88;101026.78;7397524;19;1595;-48
2023/05/06 02:36:53;;;;;;;;;;;;;;;20.76;63.93;101023.97;7398777;19;1199;-48
2023/05/06 02:39:21;;;;;;;;;;;;;;;20.76;63.76;101026.66;7399146;19;1138;-48
2023/05/06 02:41:49;;;;;;;;;;;;;;;20.75;64.06;101016.88;7398509;19;1545;-51
2023/05/06 02:44:18;;;;;;;;;;;;;;;20.74;64.08;101009.81;7397760;19;1877;-51
2023/05/06 02:46:46;;;;;;;;;;;;;;;20.57;64.44;101022.06;7399106;19;1564;-51
2023/05/06 02:49:17;;;;;;;;;;;;;;;20.27;65.12;101003.22;7397993;19;1954;-51
2023/05/06 02:51:45;;;;;;;;;;;;;;;20.28;65.25;101006.75;7398116;19;1476;-51
2023/05/06 02:54:14;;;;;;;;;;;;;;;20.50;64.75;101016.41;7397704;19;1497;-49
2023/05/06 02:56:45;;;;;;;;;;;;;;;20.72;64.20;101020.69;7397405;19;1833;-49
2023/05/06 02:59:13;;;;;;;;;;;;;;;20.73;64.10;101016.16;7396861;19;1476;-49
2023/05/06 03:01:41;;;;;;;;;;;;;;;20.79;63.95;101027.22;7397773;19;1374;-49
2023/05/06 03:04:10;;;;;;;;;;;;;;;20.88;63.80;101016.59;7397112;19;1844;-50
2023/05/06 03:06:41;;;;;;;;;;;;;;;20.97;63.61;101016.59;7398676;19;1111;-49
2023/05/06 03:09:09;;;;;;;;;;;;;;;20.93;63.67;101020.56;7395522;19;1595;-49
2023/05/06 03:11:37;;;;;;;;;;;;;;;20.88;63.75;101025.50;7397679;19;1627;-49
2023/05/06 03:14:06;;;;;;;;;;;;;;;20.84;63.81;101024.09;7397614;19;1619;-49
2023/05/06 03:16:34;;;;;;;;;;;;;;;20.87;63.71;101031.91;7398559;19;1167;-49
2023/05/06 03:19:03;;;;;;;;;;;;;;;20.85;63.95;101031.19;7398316;19;1488;-49
2023/05/06 03:21:32;;;;;;;;;;;;;;;20.89;63.82;101032.59;7398688;19;1655;-49
2023/05/06 03:24:02;;;;;;;;;;;;;;;20.89;63.61;101032.59;7397279;19;1863;-49
2023/05/06 03:26:31;;;;;;;;;;;;;;;20.85;63.97;101036.56;7397825;19;1463;-49
2023/05/06 03:28:59;;;;;;;;;;;;;;;20.84;63.92;101042.91;7397525;19;1771;-49
2023/05/06 03:31:27;;;;;;;;;;;;;;;20.90;63.63;101045.03;7397239;19;1725;-48
2023/05/06 03:33:56;;;;;;;;;;;;;;;20.86;63.69;101036.41;7396769;19;1723;-49
2023/05/06 03:36:26;;;;;;;;;;;;;;;20.88;63.67;101049.72;7398843;19;1011;-49
2023/05/06 03:38:55;;;;;;;;;;;;;;;20.85;63.87;101047.31;7397873;19;1911;-48
2023/05/06 03:41:26;;;;;;;;;;;;;;;20.89;63.70;101045.16;7394581;19;1869;-48
2023/05/06 03:43:54;;;;;;;;;;;;;;;20.91;63.75;101060.19;7396653;19;1851;-48
2023/05/06 03:46:23;;;;;;;;;;;;;;;20.91;63.91;101062.88;7396148;19;1727;-48
2023/05/06 03:48:51;;;;;;;;;;;;;;;20.97;64.40;101067.69;7395696;19;1793;-50
2023/05/06 03:51:19;;;;;;;;;;;;;;;20.93;64.37;101074.34;7397065;19;1854;-51
2023/05/06 03:53:47;;;;;;;;;;;;;;;20.88;64.62;101073.06;7396801;19;1271;-50
2023/05/06 03:56:17;;;;;;;;;;;;;;;20.89;64.75;101083.69;7396399;19;1555;-49
2023/05/06 03:58:48;;;;;;;;;;;;;;;20.92;64.35;101085.22;7395795;19;1168;-49
2023/05/06 04:01:17;;;;;;;;;;;;;;;20.76;64.63;101075.03;7394053;19;3261;-49
2023/05/06 04:03:45;;;;;;;;;;;;;;;20.63;65.08;101075.28;7396059;19;1858;-49
2023/05/06 04:06:13;;;;;;;;;;;;;;;20.63;64.92;101078.84;7396555;19;1269;-49
2023/05/06 04:08:41;;;;;;;;;;;;;;;20.44;65.27;101073.38;7394477;19;1492;-49
2023/05/06 04:11:10;;;;;;;;;;;;;;;20.50;65.48;101086.25;6881983;19;10000456;-49
2023/05/06 04:13:38;;;;;;;;;;;;;;;20.34;65.53;101083.25;7395334;19;1813;-49
2023/05/06 04:16:09;;;;;;;;;;;;;;;20.48;65.29;101095.44;7396407;19;1476;-49
2023/05/06 04:18:38;;;;;;;;;;;;;;;20.50;65.25;101107.75;7396030;19;1370;-49
2023/05/06 04:21:07;;;;;;;;;;;;;;;20.53;65.32;101098.56;7396842;19;1552;-49
2023/05/06 04:23:35;;;;;;;;;;;;;;;20.51;64.98;101079.88;7394706;19;1951;-40
2023/05/06 04:26:03;;;;;;;;;;;;;;;20.50;64.75;101094.31;7396997;19;1592;-41
2023/05/06 04:28:31;;;;;;;;;;;;;;;20.54;64.86;101103.78;7396824;19;1539;-41
2023/05/06 04:31:01;;;;;;;;;;;;;;;20.45;65.07;101088.50;7395044;19;1435;-41
2023/05/06 04:33:31;;;;;;;;;;;;;;;20.46;64.91;101084.84;7395247;19;1483;-40
2023/05/06 04:36:00;;;;;;;;;;;;;;;20.55;64.96;101105.50;7395873;19;1550;-40
2023/05/06 04:38:30;;;;;;;;;;;;;;;20.53;64.76;101099.44;7395415;19;1501;-40
2023/05/06 04:40:59;;;;;;;;;;;;;;;20.46;65.28;101085.66;7397363;19;1147;-40
2023/05/06 04:43:28;;;;;;;;;;;;;;;20.62;64.56;101085.19;7396802;19;1869;-41
2023/05/06 04:45:56;;;;;;;;;;;;;;;20.69;64.58;101090.00;7396433;19;1953;-41
2023/05/06 04:48:25;;;;;;;;;;;;;;;20.75;64.50;101094.81;7394822;19;1481;-41
2023/05/06 04:50:55;;;;;;;;;;;;;;;20.71;64.35;101104.13;7396133;19;1451;-40
2023/05/06 04:53:24;;;;;;;;;;;;;;;20.67;64.52;101108.94;7395381;19;1456;-40
2023/05/06 04:55:52;;;;;;;;;;;;;;;20.46;65.09;101109.00;7397802;19;1320;-42
2023/05/06 04:58:21;;;;;;;;;;;;;;;20.40;65.58;101109.56;7396441;19;1550;-40
2023/05/06 05:00:49;;;;;;;;;;;;;;;20.30;65.74;101097.94;7395306;19;1488;-40
2023/05/06 05:03:17;;;;;;;;;;;;;;;20.26;65.59;101106.25;7395574;19;1863;-40
2023/05/06 05:05:46;;;;;;;;;;;;;;;20.19;65.95;101099.75;7396075;19;1462;-40
2023/05/06 05:08:16;;;;;;;;;;;;;;;19.99;66.78;101114.88;7395073;19;1817;-40
2023/05/06 05:10:45;;;;;;;;;;;;;;;19.94;67.14;101116.28;7394049;19;2276;-41
2023/05/06 05:13:13;;;;;;;;;;;;;;;20.12;66.26;101120.03;7394428;19;1436;-40
2023/05/06 05:15:41;;;;;;;;;;;;;;;20.13;66.50;101127.09;7394570;19;1485;-41
2023/05/06 05:18:10;;;;;;;;;;;;;;;19.96;67.32;101119.69;7395711;19;1472;-40
2023/05/06 05:20:38;;;;;;;;;;;;;;;19.84;67.55;101111.72;7392200;19;1777;-40
2023/05/06 05:23:06;;;;;;;;;;;;;;;19.81;67.60;101117.31;7393599;19;1759;-40
2023/05/06 05:25:37;;;;;;;;;;;;;;;19.96;67.28;101114.31;7391645;19;1847;-40
2023/05/06 05:28:06;;;;;;;;;;;;;;;20.00;67.01;101121.13;7394922;19;1847;-41
2023/05/06 05:30:34;;;;;;;;;;;;;;;20.04;67.22;101126.09;7391403;19;1503;-41
2023/05/06 05:33:02;;;;;;;;;;;;;;;19.94;67.54;101132.41;7391671;19;1531;-41
2023/05/06 05:35:31;;;;;;;;;;;;;;;19.96;67.38;101122.38;7390356;19;1531;-40
2023/05/06 05:37:59;;;;;;;;;;;;;;;20.14;66.89;101122.59;7391515;19;1437;-41
2023/05/06 05:40:27;;;;;;;;;;;;;;;20.12;66.73;101128.09;7393529;19;1542;-40
2023/05/06 05:42:58;;;;;;;;;;;;;;;20.10;66.95;101127.38;7393736;19;1469;-41
2023/05/06 05:45:27;;;;;;;;;;;;;;;20.02;67.30;101132.56;7391768;19;1845;-40
2023/05/06 05:47:55;;;;;;;;;;;;;;;19.94;67.85;101133.25;7387354;19;1452;-47
2023/05/06 05:50:24;;;;;;;;;;;;;;;20.09;67.36;101131.03;7391838;19;1562;-46
2023/05/06 05:52:53;;;;;;;;;;;;;;;20.09;67.39;101124.81;7392482;19;1515;-46
2023/05/06 05:55:21;;;;;;;;;;;;;;;20.10;67.49;101123.84;7385333;19;1449;-46
2023/05/06 05:57:49;;;;;;;;;;;;;;;20.12;67.61;101136.16;7390927;19;1413;-46
2023/05/06 06:00:21;;;;;;;;;;;;;;;20.14;67.41;101123.44;7389705;19;1065;-46
2023/05/06 06:02:49;;;;;;;;;;;;;;;20.12;67.68;101129.94;7391923;19;1756;-46
2023/05/06 06:05:17;;;;;;;;;;;;;;;20.15;67.29;101126.97;7391404;19;1869;-46
2023/05/06 06:07:46;;;;;;;;;;;;;;;20.20;67.28;101136.34;7390903;19;1742;-46
2023/05/06 06:10:14;;;;;;;;;;;;;;;20.02;67.86;101119.16;7386633;19;1483;-45
2023/05/06 06:12:43;;;;;;;;;;;;;;;19.86;68.28;101136.56;7376774;19;2218;-42
2023/05/06 06:15:12;;;;;;;;;;;;;;;19.96;67.75;101138.47;7395461;19;1438;-42
2023/05/06 06:17:43;;;;;;;;;;;;;;;19.98;67.96;101131.16;7393251;19;1590;-42
2023/05/06 06:20:11;;;;;;;;;;;;;;;20.00;67.93;101139.91;7398378;19;1869;-42
2023/05/06 06:22:40;;;;;;;;;;;;;;;19.97;67.90;101140.16;7395837;19;1496;-41
2023/05/06 06:25:09;;;;;;;;;;;;;;;20.02;67.82;101138.78;7395900;19;1859;-42
2023/05/06 06:27:38;;;;;;;;;;;;;;;19.99;68.04;101136.34;7395974;19;1500;-40
2023/05/06 06:30:06;;;;;;;;;;;;;;;19.97;68.48;101143.69;7395988;19;1512;-40
2023/05/06 06:32:35;;;;;;;;;;;;;;;19.99;67.97;101139.03;7395583;19;1399;-40
2023/05/06 06:35:06;;;;;;;;;;;;;;;20.11;68.03;101144.34;7397963;19;1274;-40
2023/05/06 06:37:34;;;;;;;;;;;;;;;20.02;68.21;101146.84;7398510;19;1575;-42
2023/05/06 06:40:02;;;;;;;;;;;;;;;20.00;68.60;101145.28;7396014;19;1182;-40
2023/05/06 06:42:31;;;;;;;;;;;;;;;20.12;68.48;101133.47;7396445;19;1357;-39
2023/05/06 06:44:59;;;;;;;;;;;;;;;20.10;68.48;101148.03;7393898;19;1846;-42
2023/05/06 06:47:27;;;;;;;;;;;;;;;19.98;69.29;101139.19;7397147;19;1145;-41
2023/05/06 06:49:55;;;;;;;;;;;;;;;19.92;69.03;101145.94;7395799;19;1929;-41
2023/05/06 06:52:26;;;;;;;;;;;;;;;20.05;68.45;101124.25;7396260;19;1507;-41
2023/05/06 06:54:54;;;;;;;;;;;;;;;20.10;68.50;101127.38;7394556;19;1426;-41
2023/05/06 06:57:23;;;;;;;;;;;;;;;20.02;68.27;101144.16;7396858;19;1302;-41
2023/05/06 06:59:52;;;;;;;;;;;;;;;19.91;69.22;101143.38;7395981;19;1315;-40
2023/05/06 07:02:21;;;;;;;;;;;;;;;19.88;69.39;101138.28;7396661;19;1376;-40
2023/05/06 07:04:49;;;;;;;;;;;;;;;19.90;69.23;101136.31;7395582;19;1858;-40
2023/05/06 07:07:17;;;;;;;;;;;;;;;19.98;69.14;101147.25;7395945;19;1354;-40
2023/05/06 07:09:48;;;;;;;;;;;;;;;19.90;69.55;101147.06;7394615;19;1249;-39
2023/05/06 07:12:16;;;;;;;;;;;;;;;19.97;69.47;101156.28;7396392;19;1479;-40
2023/05/06 07:14:45;;;;;;;;;;;;;;;19.96;69.16;101142.00;7396314;19;1432;-40
2023/05/06 07:17:13;;;;;;;;;;;;;;;19.92;68.66;101148.63;7395782;19;1559;-40
2023/05/06 07:19:41;;;;;;;;;;;;;;;19.91;68.26;101143.38;7380084;19;2043;-40
2023/05/06 07:22:09;;;;;;;;;;;;;;;19.97;68.05;101137.47;7387054;19;1911;-40
2023/05/06 07:24:38;;;;;;;;;;;;;;;20.01;68.15;101160.38;7387704;19;1848;-41
2023/05/06 07:27:09;;;;;;;;;;;;;;;19.96;68.12;101151.91;7393479;19;1504;-40
2023/05/06 07:29:37;;;;;;;;;;;;;;;19.93;67.77;101153.00;7393882;19;1524;-40
2023/05/06 07:32:06;;;;;;;;;;;;;;;19.97;67.21;101153.59;7391809;19;1468;-41
2023/05/06 07:34:35;;;;;;;;;;;;;;;19.97;65.54;101149.06;7397317;19;1390;-41
2023/05/06 07:37:03;;;;;;;;;;;;;;;20.02;65.83;101146.00;7397469;19;913;-40
2023/05/06 07:39:32;;;;;;;;;;;;;;;20.04;65.89;101154.78;7397581;19;1971;-41
2023/05/06 07:42:00;;;;;;;;;;;;;;;20.05;65.89;101170.75;7397344;19;1860;-40
2023/05/06 07:44:31;;;;;;;;;;;;;;;20.01;65.96;101160.38;7394577;19;1888;-40
2023/05/06 07:46:59;;;;;;;;;;;;;;;19.98;65.97;101161.50;7392529;19;1805;-40
2023/05/06 07:49:30;;;;;;;;;;;;;;;20.02;65.61;101151.38;7391840;19;1535;-40
2023/05/06 07:51:58;;;;;;;;;;;;;;;20.05;65.72;101145.72;7392518;19;1168;-40
2023/05/06 07:54:26;;;;;;;;;;;;;;;20.23;65.28;101143.25;7391305;19;1413;-40
2023/05/06 07:56:55;;;;;;;;;;;;;;;20.18;65.26;101143.66;7391602;19;1219;-40
2023/05/06 07:59:23;;;;;;;;;;;;;;;20.14;65.56;101150.28;7392684;19;1475;-42
2023/05/06 08:01:54;;;;;;;;;;;;;;;20.09;65.55;101140.94;7396075;19;1473;-42
2023/05/06 08:04:22;;;;;;;;;;;;;;;20.10;65.61;101143.50;7395495;19;1856;-42
2023/05/06 08:06:51;;;;;;;;;;;;;;;20.10;65.46;101142.66;7395993;19;1234;-42
2023/05/06 08:09:19;;;;;;;;;;;;;;;20.13;65.36;101159.31;7394643;19;1551;-41
2023/05/06 08:11:47;;;;;;;;;;;;;;;20.06;65.08;101148.28;7396370;19;1608;-41
2023/05/06 08:14:15;;;;;;;;;;;;;;;20.01;65.35;101147.81;7395121;19;1230;-40
2023/05/06 08:16:44;;;;;;;;;;;;;;;20.04;65.51;101157.44;7395524;19;1514;-41
2023/05/06 08:19:14;;;;;;;;;;;;;;;20.06;65.06;101164.38;7395698;19;1602;-40
2023/05/06 08:21:43;;;;;;;;;;;;;;;20.15;64.80;101178.00;7394989;19;1847;-40
2023/05/06 08:24:12;;;;;;;;;;;;;;;20.11;64.49;101150.56;7395358;19;1567;-40
2023/05/06 08:26:40;;;;;;;;;;;;;;;20.09;64.13;101151.69;7393662;19;1940;-41
2023/05/06 08:29:09;;;;;;;;;;;;;;;20.05;64.67;101145.72;7396102;19;1238;-40
2023/05/06 08:31:37;;;;;;;;;;;;;;;19.98;64.30;101166.03;7395152;19;1844;-41
2023/05/06 08:34:06;;;;;;;;;;;;;;;19.93;64.16;101162.88;7395159;19;1555;-41
2023/05/06 08:36:36;;;;;;;;;;;;;;;19.94;64.26;101164.59;7395348;19;1509;-40
2023/05/06 08:39:05;;;;;;;;;;;;;;;20.02;63.93;101151.38;7396275;19;1111;-41
2023/05/06 08:41:35;;;;;;;;;;;;;;;20.00;63.99;101161.38;7395368;19;1548;-40
2023/05/06 08:44:05;;;;;;;;;;;;;;;19.95;63.47;101161.75;7394919;19;1539;-40
2023/05/06 08:46:33;;;;;;;;;;;;;;;19.97;63.29;101164.31;7393648;19;1849;-41
2023/05/06 08:49:01;;;;;;;;;;;;;;;20.02;63.38;101165.63;7395611;19;1950;-40
2023/05/06 08:51:30;;;;;;;;;;;;;;;20.05;63.29;101149.28;7394331;19;1509;-41
2023/05/06 08:54:02;;;;;;;;;;;;;;;20.09;63.31;101152.53;7395523;19;1551;-42
2023/05/06 08:56:31;;;;;;;;;;;;;;;20.19;62.95;101148.06;7398113;19;1626;-40
2023/05/06 08:59:00;;;;;;;;;;;;;;;20.16;63.20;101153.69;7402490;19;1538;-40
2023/05/06 09:01:29;;;;;;;;;;;;;;;20.15;63.27;101159.19;7401887;19;1473;-41
2023/05/06 09:03:58;;;;;;;;;;;;;;;20.16;62.84;101164.44;7402268;19;1218;-40
2023/05/06 09:06:27;;;;;;;;;;;;;;;20.00;63.00;101150.66;7399595;19;1863;-40
2023/05/06 09:08:55;;;;;;;;;;;;;;;20.03;63.14;101120.84;7401188;19;1175;-40
2023/05/06 09:11:28;;;;;;;;;;;;;;;19.92;63.82;101140.56;7400665;19;1207;-40
2023/05/06 09:14:09;;;;;;;;;;;;;;;19.90;63.86;101144.38;7401428;19;1579;-40
2023/05/06 09:16:37;;;;;;;;;;;;;;;19.99;63.02;101152.47;7401157;19;1607;-41
2023/05/06 09:19:06;;;;;;;;;;;;;;;19.95;63.44;101142.97;7400859;19;1258;-40
2023/05/06 09:21:35;;;;;;;;;;;;;;;19.99;63.08;101143.56;7401110;19;1651;-41
2023/05/06 09:24:03;;;;;;;;;;;;;;;20.01;63.19;101149.66;7401494;19;1491;-40
2023/05/06 09:26:34;;;;;;;;;;;;;;;20.12;62.73;101144.22;7399247;19;1852;-40
2023/05/06 09:29:03;;;;;;;;;;;;;;;20.25;62.63;101130.53;7401087;19;1262;-40
2023/05/06 09:31:31;;;;;;;;;;;;;;;20.00;63.59;101135.38;7401101;19;1295;-40
2023/05/06 09:34:01;;;;;;;;;;;;;;;19.82;63.51;101134.31;7396131;19;1301;-40
2023/05/06 09:36:30;;;;;;;;;;;;;;;19.75;63.99;101138.47;7398966;19;1474;-40
2023/05/06 09:38:58;;;;;;;;;;;;;;;19.76;64.29;101145.56;7391522;19;1253;-42
2023/05/06 09:41:27;;;;;;;;;;;;;;;19.71;64.74;101137.00;7394716;19;1478;-42
2023/05/06 09:43:58;;;;;;;;;;;;;;;19.81;64.58;101144.16;7397710;19;1824;-42
2023/05/06 09:46:27;;;;;;;;;;;;;;;19.89;64.11;101131.94;7392590;19;1842;-46
2023/05/06 09:48:56;;;;;;;;;;;;;;;19.91;64.13;101135.34;7397685;19;1374;-46
2023/05/06 09:51:24;;;;;;;;;;;;;;;20.02;64.00;101136.09;7399123;19;1297;-46
2023/05/06 09:53:52;;;;;;;;;;;;;;;20.01;64.51;101138.91;7399984;19;1482;-46
2023/05/06 09:56:22;;;;;;;;;;;;;;;19.91;64.75;101128.13;7399655;19;1625;-60
2023/05/06 09:58:51;;;;;;;;;;;;;;;19.66;65.43;101083.75;7398656;19;1397;-59
2023/05/06 10:01:22;;;;;;;;;;;;;;;19.94;65.48;101135.91;7400588;19;1314;-59
2023/05/06 10:03:51;;;;;;;;;;;;;;;19.97;64.79;101122.22;7397083;19;1595;-45
2023/05/06 10:06:19;;;;;;;;;;;;;;;19.93;64.48;101110.03;7397131;19;1849;-45
2023/05/06 10:08:48;;;;;;;;;;;;;;;20.00;64.13;101115.75;7394814;19;1461;-46
2023/05/06 10:11:17;;;;;;;;;;;;;;;20.12;64.53;101130.78;7400724;19;1234;-51
2023/05/06 10:13:46;;;;;;;;;;;;;;;20.13;65.07;101108.31;7399274;19;1687;-51
2023/05/06 10:16:16;;;;;;;;;;;;;;;20.06;65.82;101117.91;7399774;19;1468;-50
2023/05/06 10:18:48;;;;;;;;;;;;;;;20.08;65.50;101123.16;7398552;19;1537;-50
2023/05/06 10:21:21;;;;;;;;;;;;;;;20.05;65.37;101100.06;7397719;19;1464;-50
2023/05/06 10:23:55;;;;;;;;;;;;;;;20.00;65.98;101115.75;7394349;19;1302;-50
2023/05/06 10:26:24;;;;;;;;;;;;;;;20.00;65.40;101119.28;7393208;19;1853;-50
2023/05/06 10:28:54;;;;;;;;;;;;;;;20.01;65.70;101112.91;7395895;19;1175;-46
2023/05/06 10:31:22;;;;;;;;;;;;;;;20.12;65.37;101125.41;7398690;19;1251;-49
2023/05/06 10:33:55;;;;;;;;;;;;;;;20.20;64.47;101105.94;7395990;19;1318;-48
2023/05/06 10:36:26;;;;;;;;;;;;;;;20.13;64.44;101105.63;7397508;19;1434;-46
2023/05/06 10:38:56;;;;;;;;;;;;;;;20.20;64.05;101088.00;7398249;19;1484;-47
2023/05/06 10:41:26;;;;;;;;;;;;;;;20.17;64.15;101107.06;7399037;19;1133;-47
2023/05/06 10:43:58;;;;;;;;;;;;;;;20.24;64.13;101118.13;7398182;19;1649;-47
2023/05/06 10:46:27;;;;;;;;;;;;;;;20.09;64.34;101098.81;7395705;19;1852;-47
2023/05/06 10:49:10;;;;;;;;;;;;;;;20.11;64.50;101091.47;7396742;19;1223;-47
2023/05/06 10:51:42;;;;;;;;;;;;;;;20.14;64.14;101093.06;7395413;19;1667;-46
2023/05/06 10:54:11;;;;;;;;;;;;;;;20.16;64.27;101107.22;7397058;19;1964;-47
2023/05/06 10:56:39;;;;;;;;;;;;;;;20.05;64.57;101092.03;7397115;19;1480;-47
2023/05/06 10:59:11;;;;;;;;;;;;;;;19.97;64.60;101091.84;7393505;19;1736;-47
2023/05/06 11:01:41;;;;;;;;;;;;;;;19.92;64.92;101080.69;7395354;19;1877;-47
2023/05/06 11:04:10;;;;;;;;;;;;;;;19.96;64.63;101099.06;7392386;19;1912;-47
2023/05/06 11:06:43;;;;;;;;;;;;;;;19.97;64.80;101099.91;7391598;19;1868;-51
2023/05/06 11:09:18;;;;;;;;;;;;;;;19.86;64.71;101108.91;7391590;19;1688;-47
2023/05/06 11:11:53;;;;;;;;;;;;;;;20.06;64.35;101099.94;7394102;19;995;-46
2023/05/06 11:14:27;;;;;;;;;;;;;;;20.14;64.09;101099.28;7395833;19;1505;-46
2023/05/06 11:16:56;;;;;;;;;;;;;;;20.19;63.75;101106.91;7393204;19;1512;-46
2023/05/06 11:19:25;;;;;;;;;;;;;;;20.20;64.08;101106.78;7393642;19;1457;-46
2023/05/06 11:21:57;;;;;;;;;;;;;;;20.20;63.68;101098.75;7393551;19;1381;-46
2023/05/06 11:24:29;;;;;;;;;;;;;;;20.26;63.07;101089.28;7393980;19;1763;-47
2023/05/06 11:26:58;;;;;;;;;;;;;;;20.09;63.40;101101.50;7392567;19;1842;-46
2023/05/06 11:29:26;;;;;;;;;;;;;;;20.21;63.17;101096.91;7394958;19;1588;-46
2023/05/06 11:31:55;;;;;;;;;;;;;;;20.17;62.90;101095.47;7398573;19;1258;-46
2023/05/06 11:34:25;;;;;;;;;;;;;;;20.05;63.75;101097.38;7396324;19;1273;-48
2023/05/06 11:36:57;;;;;;;;;;;;;;;19.96;63.25;101091.00;7397875;19;1717;-48
2023/05/06 11:39:29;;;;;;;;;;;;;;;19.86;63.63;101088.28;7397302;19;1821;-46
2023/05/06 11:41:57;;;;;;;;;;;;;;;19.72;64.20;101103.88;7395644;19;1398;-47
2023/05/06 11:44:26;;;;;;;;;;;;;;;19.64;64.41;101078.50;7391996;19;1656;-51
2023/05/06 11:46:57;;;;;;;;;;;;;;;19.90;63.53;101082.66;7395765;19;1860;-50
2023/05/06 11:49:25;;;;;;;;;;;;;;;19.92;63.67;101080.69;7396452;19;1378;-50
2023/05/06 11:51:57;;;;;;;;;;;;;;;20.07;63.50;101084.69;7396564;19;1557;-50
2023/05/06 11:54:26;;;;;;;;;;;;;;;20.01;63.72;101087.91;7394767;19;1384;-51
2023/05/06 11:56:55;;;;;;;;;;;;;;;19.99;64.67;101092.56;7395201;19;1194;-50
2023/05/06 11:59:33;;;;;;;;;;;;;;;20.17;63.71;101107.06;7395901;19;1345;-50
2023/05/06 12:02:02;;;;;;;;;;;;;;;20.16;63.72;101085.72;7398797;19;1307;-50
2023/05/06 12:04:38;;;;;;;;;;;;;;;20.02;64.00;101082.41;7396046;19;1456;-50
2023/05/06 12:07:09;;;;;;;;;;;;;;;19.98;64.22;101093.56;7394193;19;1849;-49
2023/05/06 12:09:38;;;;;;;;;;;;;;;19.93;64.28;101072.47;6874414;19;10000580;-47
2023/05/06 12:12:07;;;;;;;;;;;;;;;20.03;64.25;101080.56;7383799;19;1631;-47
2023/05/06 12:14:35;;;;;;;;;;;;;;;20.14;63.66;101077.81;7385853;19;1826;-47
2023/05/06 12:17:04;;;;;;;;;;;;;;;20.33;63.67;101082.38;7386782;19;1385;-47
2023/05/06 12:19:34;;;;;;;;;;;;;;;20.35;62.97;101082.25;7388778;19;1543;-47
2023/05/06 12:22:17;;;;;;;;;;;;;;;20.36;62.56;101089.34;7386179;19;1849;-47
2023/05/06 12:24:49;;;;;;;;;;;;;;;20.22;62.86;101087.88;7389504;19;1482;-46
2023/05/06 12:27:30;;;;;;;;;;;;;;;19.96;63.19;101071.38;7387568;19;1837;-46
2023/05/06 12:29:59;;;;;;;;;;;;;;;20.02;63.54;101073.50;7388286;19;1539;-46
2023/05/06 12:32:27;;;;;;;;;;;;;;;20.16;64.26;101073.16;7388375;19;1415;-47
2023/05/06 12:34:56;;;;;;;;;;;;;;;20.25;63.99;101066.09;7393717;19;1392;-46
2023/05/06 12:37:28;;;;;;;;;;;;;;;20.30;64.96;101052.28;7392589;19;1333;-46
2023/05/06 12:40:00;;;;;;;;;;;;;;;20.30;64.29;101063.03;7393191;19;1277;-46
2023/05/06 12:42:28;;;;;;;;;;;;;;;20.34;64.27;101056.38;7393135;19;1444;-46
2023/05/06 12:44:57;;;;;;;;;;;;;;;19.95;64.91;101075.03;7394041;19;1369;-46
2023/05/06 12:47:27;;;;;;;;;;;;;;;19.93;64.68;101061.72;7392955;19;1859;-48
2023/05/06 12:49:56;;;;;;;;;;;;;;;20.00;62.35;101068.28;7394646;19;1891;-47
2023/05/06 12:52:26;;;;;;;;;;;;;;;19.96;64.62;101049.91;7394701;19;1436;-52
2023/05/06 12:54:54;;;;;;;;;;;;;;;20.02;66.90;101057.41;7395241;19;1385;-47
2023/05/06 12:57:25;;;;;;;;;;;;;;;19.88;67.77;101047.03;7393432;19;1595;-48